logo
Search for airport 
image banner adimage banner adimage banner ad
image banner ad

OKAJ - Ahmed Al Jaber Air Base

Located in , Kuwait

ICAO - OKAJ, IATA - XIJ

Data provided by Airmate  

General information

Coordinates: N28°56'6" E47°47'31"
Elevation is 409 feet MSL.
 
View others Airports in Al Ahmadi Governorate

Operational data

Special qualification required
Current time UTC:
Current local time:
Weather at : OKAS - Ali Al Salem Air Base ( 53 km )
METAR: OKAS 220955Z 07010KT 9999 CLR 32/13 A2979 RMK SLPNO WND DATA ESTMD RVRNO $
TAF: TAF OKAS 220800Z 2208/2314 03015G25KT 9000 BLDU SKC QNH2979INS BECMG 2215/2216 320009KT 9999 NSW SKC QNH2985INS BECMG 2302/2303 34012G20KT 9999 SKC QNH2987INS BECMG 2306/2307 34015G25KT 9000 BLDU SKC QNH2976INS TX35/2313Z TN21/2302Z
View NOTAMs / SUP AIP / TFR affecting this airport [VIEW]
Communications frequencies: [VIEW]

Runways:

Airport contact information

Address: Kuwait

Satellite view of OKAJ